Time;durP1;ratioP1;P1;durP2;ratioP2;P2;SDS_P1;SDS_P2;PMS_P1;PMS_P2;Temp;Humidity;BMP_temperature;BMP_pressure;BME280_temperature;BME280_humidity;BME280_pressure;Samples;Min_cycle;Max_cycle;Signal;HPM_P1;HPM_P2
2023/09/17 00:01:00;;;;;;;18.60;13.55;;;12.90;1.00;;;;;;5026640;28;20037;-81
2023/09/17 00:03:26;;;;;;;20.10;13.73;;;12.90;1.00;;;;;;5029291;28;20072;-81
2023/09/17 00:05:52;;;;;;;16.83;13.45;;;12.90;1.00;;;;;;5033118;28;20120;-81
2023/09/17 00:08:18;;;;;;;19.67;13.48;;;12.90;1.00;;;;;;5031969;28;20418;-81
2023/09/17 00:10:45;;;;;;;20.30;13.77;;;13.00;1.00;;;;;;5048448;28;20044;-82
2023/09/17 00:13:12;;;;;;;17.83;13.02;;;13.00;1.00;;;;;;5031734;28;20072;-81
2023/09/17 00:15:38;;;;;;;19.17;13.88;;;13.00;1.00;;;;;;5037413;28;20080;-82
2023/09/17 00:18:04;;;;;;;21.67;15.38;;;13.00;1.00;;;;;;5040442;28;20044;-82
2023/09/17 00:20:29;;;;;;;21.83;15.38;;;13.10;1.00;;;;;;5033816;28;20052;-82
2023/09/17 00:22:55;;;;;;;23.15;15.88;;;13.10;1.00;;;;;;5051504;28;20059;-82
2023/09/17 00:25:21;;;;;;;24.80;17.35;;;13.20;1.00;;;;;;5049803;28;20131;-82
2023/09/17 00:27:46;;;;;;;24.60;16.98;;;13.20;1.00;;;;;;5047030;28;20076;-82
2023/09/17 00:30:13;;;;;;;22.25;15.77;;;13.30;1.00;;;;;;5044943;28;20079;-81
2023/09/17 00:32:39;;;;;;;24.60;17.52;;;13.30;1.00;;;;;;5027071;28;20045;-81
2023/09/17 00:35:05;;;;;;;25.08;17.02;;;13.20;1.00;;;;;;5049676;28;20048;-81
2023/09/17 00:37:31;;;;;;;23.80;16.30;;;13.30;1.00;;;;;;5044929;28;20119;-82
2023/09/17 00:39:57;;;;;;;23.95;16.42;;;13.30;1.00;;;;;;5041209;28;20587;-82
2023/09/17 00:42:23;;;;;;;24.63;16.50;;;13.30;1.00;;;;;;5045253;28;20050;-82
2023/09/17 00:44:49;;;;;;;19.80;14.93;;;13.30;1.00;;;;;;5047517;28;20037;-82
2023/09/17 00:47:15;;;;;;;17.92;12.75;;;13.30;1.00;;;;;;5032099;28;20041;-81
2023/09/17 00:49:41;;;;;;;19.40;12.45;;;13.30;1.00;;;;;;5053196;28;20051;-82
2023/09/17 00:52:15;;;;;;;20.55;12.70;;;13.30;1.00;;;;;;5028438;28;20127;-81
2023/09/17 00:54:42;;;;;;;17.83;13.20;;;13.20;1.00;;;;;;5033459;28;20207;-82
2023/09/17 00:57:08;;;;;;;16.15;11.77;;;13.10;1.00;;;;;;5047014;28;20115;-82
2023/09/17 00:59:33;;;;;;;14.27;11.20;;;13.10;1.00;;;;;;5043985;28;20465;-82
2023/09/17 01:02:00;;;;;;;16.70;12.02;;;13.00;1.00;;;;;;5041098;28;20507;-82
2023/09/17 01:04:27;;;;;;;19.55;13.18;;;12.90;1.00;;;;;;5051142;28;20051;-82
2023/09/17 01:06:55;;;;;;;20.95;13.70;;;12.90;1.00;;;;;;5052696;28;20091;-81
2023/09/17 01:09:22;;;;;;;16.52;12.55;;;12.80;1.00;;;;;;5049023;28;20044;-81
2023/09/17 01:11:49;;;;;;;20.85;13.52;;;12.80;1.00;;;;;;5037752;28;20045;-82
2023/09/17 01:14:14;;;;;;;21.23;14.00;;;12.70;1.00;;;;;;5040997;28;20048;-82
2023/09/17 01:16:47;;;;;;;19.50;13.57;;;12.70;1.00;;;;;;5036795;28;20490;-82
2023/09/17 01:19:23;;;;;;;17.40;12.27;;;12.60;1.00;;;;;;5048545;28;20044;-81
2023/09/17 01:22:01;;;;;;;17.17;11.63;;;12.60;1.00;;;;;;5045438;28;20055;-82
2023/09/17 01:24:40;;;;;;;17.67;12.93;;;12.50;1.00;;;;;;5047640;28;20403;-82
2023/09/17 01:27:06;;;;;;;18.15;13.13;;;12.50;1.00;;;;;;5047322;28;20032;-82
2023/09/17 01:29:37;;;;;;;21.33;13.93;;;12.40;1.00;;;;;;5050142;28;20406;-82
2023/09/17 01:32:04;;;;;;;19.10;13.35;;;12.40;1.00;;;;;;5060938;28;20105;-83
2023/09/17 01:34:37;;;;;;;23.73;16.02;;;12.40;1.00;;;;;;5048438;28;20049;-82
2023/09/17 01:37:08;;;;;;;26.15;17.40;;;12.50;1.00;;;;;;5034489;28;20072;-82
2023/09/17 01:39:45;;;;;;;30.15;18.95;;;12.50;1.00;;;;;;5032535;28;20103;-82
2023/09/17 01:42:12;;;;;;;27.60;18.73;;;12.50;1.00;;;;;;5042117;28;20054;-82
2023/09/17 01:44:40;;;;;;;29.77;17.85;;;12.60;1.00;;;;;;5050934;28;20728;-82
2023/09/17 01:47:06;;;;;;;29.73;18.30;;;12.60;1.00;;;;;;5046215;28;20056;-82
2023/09/17 01:49:33;;;;;;;27.60;18.08;;;12.60;1.00;;;;;;5052014;28;20055;-82
2023/09/17 01:51:59;;;;;;;29.00;19.50;;;12.60;1.00;;;;;;5034000;28;20104;-82
2023/09/17 01:54:25;;;;;;;29.10;18.48;;;12.60;1.00;;;;;;5041450;28;20560;-82
2023/09/17 01:56:51;;;;;;;30.80;19.50;;;12.60;1.00;;;;;;5032131;28;20582;-82
2023/09/17 01:59:17;;;;;;;29.35;18.98;;;12.70;1.00;;;;;;5028463;28;20403;-82
2023/09/17 02:01:43;;;;;;;31.17;18.13;;;12.70;1.00;;;;;;5039810;28;20041;-82
2023/09/17 02:04:09;;;;;;;29.00;19.38;;;12.80;1.00;;;;;;5051025;28;20043;-82
2023/09/17 02:06:36;;;;;;;25.80;18.33;;;12.70;1.00;;;;;;5031331;28;20048;-82
2023/09/17 02:09:08;;;;;;;28.20;18.55;;;12.80;1.00;;;;;;5049056;28;20116;-82
2023/09/17 02:11:34;;;;;;;28.95;18.17;;;12.90;1.00;;;;;;5040482;28;20093;-82
2023/09/17 02:13:59;;;;;;;29.00;19.17;;;12.90;1.00;;;;;;5049020;28;20049;-82
2023/09/17 02:16:25;;;;;;;27.35;18.55;;;13.00;1.00;;;;;;5035456;28;20044;-82
2023/09/17 02:18:51;;;;;;;26.02;17.10;;;13.10;1.00;;;;;;5034801;28;20117;-82
2023/09/17 02:21:16;;;;;;;29.67;20.05;;;13.20;1.00;;;;;;5046541;28;20053;-82
2023/09/17 02:23:44;;;;;;;29.73;20.10;;;13.30;1.00;;;;;;5031049;28;20124;-82
2023/09/17 02:26:09;;;;;;;32.00;20.65;;;13.30;1.00;;;;;;5051485;28;20040;-82
2023/09/17 02:28:35;;;;;;;31.20;20.67;;;13.40;1.00;;;;;;5051093;28;20443;-83
2023/09/17 02:31:02;;;;;;;32.47;20.92;;;13.40;1.00;;;;;;5032440;28;20077;-83
2023/09/17 02:33:28;;;;;;;30.13;21.27;;;13.50;1.00;;;;;;5028118;28;20067;-82
2023/09/17 02:35:54;;;;;;;30.77;19.90;;;13.50;1.00;;;;;;5031945;28;20059;-83
2023/09/17 02:38:19;;;;;;;32.10;20.33;;;13.50;1.00;;;;;;5041751;28;20056;-81
2023/09/17 02:40:45;;;;;;;33.72;21.92;;;13.60;1.00;;;;;;5047177;28;20055;-82
2023/09/17 02:43:11;;;;;;;28.92;19.98;;;13.60;1.00;;;;;;5049646;28;20154;-82
2023/09/17 02:45:36;;;;;;;29.33;18.73;;;13.60;1.00;;;;;;5048119;28;20062;-82
2023/09/17 02:48:02;;;;;;;28.75;18.83;;;13.70;1.00;;;;;;5025840;28;20037;-83
2023/09/17 02:50:28;;;;;;;33.85;20.08;;;13.70;1.00;;;;;;5059631;28;20036;-82
2023/09/17 02:52:54;;;;;;;29.35;19.23;;;13.70;1.00;;;;;;5048549;28;20049;-82
2023/09/17 02:55:19;;;;;;;30.60;20.35;;;13.80;1.00;;;;;;5047535;28;20098;-82
2023/09/17 02:57:45;;;;;;;27.50;17.90;;;13.80;1.00;;;;;;5067135;28;20112;-82
2023/09/17 03:00:13;;;;;;;28.42;18.85;;;13.90;1.00;;;;;;5043506;28;20053;-82
2023/09/17 03:02:38;;;;;;;27.33;18.38;;;13.80;1.00;;;;;;5043764;28;20055;-81
2023/09/17 03:05:05;;;;;;;27.08;16.83;;;13.90;1.00;;;;;;5064822;28;20036;-82
2023/09/17 03:07:32;;;;;;;25.40;16.70;;;13.90;1.00;;;;;;5039334;28;20513;-82
2023/09/17 03:09:59;;;;;;;25.83;16.65;;;13.90;1.00;;;;;;5047613;28;20102;-83
2023/09/17 03:12:26;;;;;;;27.10;17.40;;;13.90;1.00;;;;;;5050774;28;20055;-82
2023/09/17 03:14:52;;;;;;;31.65;20.80;;;13.90;1.00;;;;;;5049855;28;20041;-82
2023/09/17 03:17:17;;;;;;;30.10;18.80;;;13.90;1.00;;;;;;5032848;28;20048;-82
2023/09/17 03:19:43;;;;;;;31.02;19.95;;;13.90;1.00;;;;;;5053721;28;20146;-82
2023/09/17 03:22:09;;;;;;;27.73;19.27;;;13.90;1.00;;;;;;5048505;28;20044;-82
2023/09/17 03:24:34;;;;;;;28.00;18.17;;;14.00;1.00;;;;;;5039865;28;20117;-83
2023/09/17 03:27:00;;;;;;;30.45;19.67;;;14.00;1.00;;;;;;5046036;28;20079;-82
2023/09/17 03:29:26;;;;;;;28.17;19.85;;;14.00;1.00;;;;;;5051421;28;20389;-82
2023/09/17 03:31:52;;;;;;;29.13;19.67;;;14.10;1.00;;;;;;5046094;28;20048;-83
2023/09/17 03:34:17;;;;;;;27.00;18.00;;;14.10;1.00;;;;;;5041729;28;20131;-82
2023/09/17 03:36:43;;;;;;;24.35;17.25;;;14.20;1.00;;;;;;5049184;28;20534;-83
2023/09/17 03:39:09;;;;;;;27.45;16.95;;;14.20;1.00;;;;;;5049146;28;20049;-82
2023/09/17 03:41:39;;;;;;;23.35;16.52;;;14.20;1.00;;;;;;5026823;28;20048;-82
2023/09/17 03:44:06;;;;;;;24.60;17.42;;;14.30;1.00;;;;;;5029042;28;20084;-82
2023/09/17 03:46:32;;;;;;;26.08;17.05;;;14.30;1.00;;;;;;5027530;28;20038;-82
2023/09/17 03:48:58;;;;;;;23.17;15.85;;;14.30;1.00;;;;;;5014403;28;20048;-83
2023/09/17 03:51:24;;;;;;;23.50;16.50;;;14.30;1.00;;;;;;5022032;28;20730;-83
2023/09/17 03:53:50;;;;;;;28.00;18.40;;;14.40;1.00;;;;;;5023561;28;20045;-82
2023/09/17 03:56:16;;;;;;;27.13;18.50;;;14.40;1.00;;;;;;5014833;28;20045;-82
2023/09/17 03:58:43;;;;;;;28.73;18.70;;;14.40;1.00;;;;;;5034824;28;20056;-82
2023/09/17 04:01:09;;;;;;;29.02;19.27;;;14.40;1.00;;;;;;5028676;28;20498;-82
2023/09/17 04:03:36;;;;;;;31.15;21.40;;;14.40;1.00;;;;;;5035924;28;20142;-82
2023/09/17 04:06:03;;;;;;;33.30;21.65;;;14.50;1.00;;;;;;5009206;28;20510;-81
2023/09/17 04:08:29;;;;;;;35.70;21.85;;;14.50;1.00;;;;;;5021024;28;20041;-82
2023/09/17 04:10:55;;;;;;;36.97;23.17;;;14.50;1.00;;;;;;5016563;28;20050;-82
2023/09/17 04:13:20;;;;;;;31.73;22.10;;;14.60;1.00;;;;;;5023021;28;20049;-81
2023/09/17 04:15:47;;;;;;;34.63;22.70;;;14.60;1.00;;;;;;5005311;28;20040;-81
2023/09/17 04:18:12;;;;;;;34.92;23.88;;;14.70;1.00;;;;;;5018584;28;20047;-81
2023/09/17 04:20:38;;;;;;;38.53;22.83;;;14.60;1.00;;;;;;5033556;28;20033;-82
2023/09/17 04:23:04;;;;;;;37.80;23.23;;;14.60;1.00;;;;;;5000576;28;20531;-81
2023/09/17 04:25:32;;;;;;;35.97;22.63;;;14.70;1.00;;;;;;5034321;28;20538;-82
2023/09/17 04:27:58;;;;;;;35.00;23.40;;;14.70;1.00;;;;;;5017658;28;20116;-81
2023/09/17 04:30:23;;;;;;;36.70;22.55;;;14.80;1.00;;;;;;5029271;28;20124;-82
2023/09/17 04:32:51;;;;;;;37.22;24.13;;;14.80;1.00;;;;;;5013153;28;20037;-82
2023/09/17 04:35:17;;;;;;;40.80;25.75;;;14.70;1.00;;;;;;5029681;28;20045;-82
2023/09/17 04:37:44;;;;;;;38.92;23.55;;;14.80;1.00;;;;;;5029429;28;20068;-82
2023/09/17 04:40:12;;;;;;;36.72;22.70;;;14.80;1.00;;;;;;5009046;28;20446;-82
2023/09/17 04:42:43;;;;;;;35.80;23.35;;;14.90;1.00;;;;;;5048463;28;20040;-82
2023/09/17 04:45:09;;;;;;;36.60;23.35;;;14.90;1.00;;;;;;5029531;28;20110;-82
2023/09/17 04:47:36;;;;;;;36.20;23.67;;;14.90;1.00;;;;;;5029322;28;20044;-82
2023/09/17 04:50:08;;;;;;;38.20;24.23;;;14.90;1.00;;;;;;5046407;28;20036;-82
2023/09/17 04:52:35;;;;;;;38.00;24.38;;;14.90;1.00;;;;;;5048857;28;20048;-82
2023/09/17 04:55:01;;;;;;;40.05;24.58;;;14.90;1.00;;;;;;5051146;28;20044;-82
2023/09/17 04:57:26;;;;;;;40.28;25.52;;;15.00;1.00;;;;;;5048824;28;20043;-81
2023/09/17 04:59:52;;;;;;;41.08;25.88;;;15.00;1.00;;;;;;5032256;28;20434;-82
2023/09/17 05:02:18;;;;;;;39.80;25.10;;;15.10;1.00;;;;;;5048428;28;20119;-81
2023/09/17 05:04:44;;;;;;;37.47;25.73;;;15.10;1.00;;;;;;5056873;28;20063;-82
2023/09/17 05:07:10;;;;;;;38.15;25.88;;;15.10;1.00;;;;;;5039545;28;20155;-81
2023/09/17 05:09:37;;;;;;;41.50;26.05;;;15.20;1.00;;;;;;5034275;28;20045;-81
2023/09/17 05:12:04;;;;;;;39.25;26.13;;;15.20;1.00;;;;;;5045127;28;20045;-82
2023/09/17 05:14:29;;;;;;;42.65;27.75;;;15.20;1.00;;;;;;5047967;28;20099;-82
2023/09/17 05:16:55;;;;;;;40.70;27.48;;;15.20;1.00;;;;;;5053453;28;20037;-82
2023/09/17 05:19:21;;;;;;;41.83;27.35;;;15.30;1.00;;;;;;5047189;28;20048;-82
2023/09/17 05:21:46;;;;;;;42.05;26.73;;;15.30;1.00;;;;;;5045648;28;20040;-82
2023/09/17 05:24:12;;;;;;;39.00;26.70;;;15.30;1.00;;;;;;5048275;28;20040;-82
2023/09/17 05:26:38;;;;;;;42.60;27.02;;;15.30;1.00;;;;;;5034748;28;20072;-82
2023/09/17 05:29:04;;;;;;;43.65;26.30;;;15.30;1.00;;;;;;5037283;28;20048;-82
2023/09/17 05:31:30;;;;;;;42.00;27.02;;;15.30;1.00;;;;;;5046943;28;20051;-81
2023/09/17 05:33:57;;;;;;;41.33;27.02;;;15.40;3.00;;;;;;5051036;28;20071;-81
2023/09/17 05:36:23;;;;;;;42.08;26.70;;;15.40;9.10;;;;;;5032300;28;20099;-82
2023/09/17 05:38:49;;;;;;;40.13;24.58;;;15.40;14.20;;;;;;5032375;28;20492;-82
2023/09/17 05:41:15;;;;;;;36.35;23.73;;;15.50;18.00;;;;;;5049919;28;20083;-82
2023/09/17 05:43:41;;;;;;;35.38;24.20;;;15.40;22.80;;;;;;5048800;28;20055;-81
2023/09/17 05:46:06;;;;;;;38.90;24.95;;;15.50;26.50;;;;;;5050708;28;20111;-82
2023/09/17 05:48:32;;;;;;;35.90;24.48;;;15.60;29.20;;;;;;5039164;28;20563;-82
2023/09/17 05:50:57;;;;;;;37.50;25.38;;;15.60;29.90;;;;;;5030929;28;20028;-82
2023/09/17 05:53:23;;;;;;;37.85;25.67;;;15.60;30.80;;;;;;5048467;28;20044;-82
2023/09/17 05:55:49;;;;;;;35.72;24.85;;;15.60;35.90;;;;;;5045503;28;20435;-85
2023/09/17 05:58:15;;;;;;;36.33;24.92;;;15.70;39.80;;;;;;5044778;28;20064;-82
2023/09/17 06:00:41;;;;;;;37.13;24.77;;;15.60;44.30;;;;;;5051066;28;20566;-84
2023/09/17 06:03:06;;;;;;;38.53;26.00;;;15.70;51.10;;;;;;5032995;28;20128;-86
2023/09/17 06:05:32;;;;;;;39.28;26.52;;;15.70;58.10;;;;;;5039334;28;20116;-83
2023/09/17 06:07:58;;;;;;;34.90;24.40;;;15.70;59.00;;;;;;5042099;28;20041;-83
2023/09/17 06:10:23;;;;;;;34.30;23.80;;;15.80;62.40;;;;;;5052099;28;20479;-84
2023/09/17 06:12:49;;;;;;;38.08;24.08;;;15.80;63.20;;;;;;5041699;28;20468;-83
2023/09/17 06:15:15;;;;;;;34.60;24.23;;;15.80;67.50;;;;;;5049779;28;20052;-83
2023/09/17 06:17:41;;;;;;;33.53;23.90;;;15.80;68.70;;;;;;5029757;28;20086;-83
2023/09/17 06:20:08;;;;;;;36.53;24.20;;;15.80;71.50;;;;;;5034323;28;20048;-83
2023/09/17 06:22:34;;;;;;;32.25;24.08;;;15.80;72.80;;;;;;5045100;28;20044;-82
2023/09/17 06:25:00;;;;;;;38.42;25.08;;;15.90;75.00;;;;;;5042853;28;20045;-82
2023/09/17 06:27:25;;;;;;;32.72;24.63;;;15.90;76.80;;;;;;5051766;28;20079;-82
2023/09/17 06:29:51;;;;;;;36.70;24.02;;;15.90;79.10;;;;;;5029003;28;20074;-83
2023/09/17 06:32:17;;;;;;;37.00;23.88;;;15.90;81.80;;;;;;5051670;28;20696;-82
2023/09/17 06:34:43;;;;;;;32.92;23.42;;;16.00;80.00;;;;;;5028603;28;20040;-82
2023/09/17 06:37:08;;;;;;;34.75;23.88;;;16.00;80.70;;;;;;5051998;28;20450;-82
2023/09/17 06:39:35;;;;;;;33.92;24.02;;;16.00;81.30;;;;;;5031674;28;20171;-83
2023/09/17 06:42:01;;;;;;;34.25;23.75;;;16.10;81.40;;;;;;5032308;28;20056;-82
2023/09/17 06:44:26;;;;;;;30.80;22.42;;;16.20;82.90;;;;;;5050579;28;20032;-82
2023/09/17 06:46:52;;;;;;;34.47;22.73;;;16.20;82.20;;;;;;5035447;28;20043;-82
2023/09/17 06:49:18;;;;;;;37.45;23.95;;;16.20;81.50;;;;;;5034628;28;20048;-82
2023/09/17 06:51:48;;;;;;;33.38;23.25;;;16.30;80.50;;;;;;5051122;28;20158;-82
2023/09/17 06:54:21;;;;;;;32.08;22.02;;;16.40;79.60;;;;;;5032414;28;20405;-82
2023/09/17 06:56:47;;;;;;;33.95;23.50;;;16.40;78.50;;;;;;5046036;28;20048;-82
2023/09/17 06:59:13;;;;;;;30.05;21.95;;;16.40;76.60;;;;;;5042147;28;20681;-81
2023/09/17 07:01:41;;;;;;;32.63;22.40;;;16.60;75.60;;;;;;5022344;28;20124;-82
2023/09/17 07:04:07;;;;;;;30.80;22.52;;;16.70;75.20;;;;;;5050512;28;20120;-80
2023/09/17 07:06:32;;;;;;;31.98;23.00;;;16.80;74.40;;;;;;5032320;28;20104;-81
2023/09/17 07:08:58;;;;;;;30.48;22.80;;;17.00;68.90;;;;;;5044490;28;20048;-81
2023/09/17 07:11:24;;;;;;;33.13;22.65;;;17.10;59.50;;;;;;5059785;28;20094;-82
2023/09/17 07:13:49;;;;;;;31.73;21.90;;;17.20;48.70;;;;;;5043714;28;20068;-81
2023/09/17 07:16:17;;;;;;;33.03;22.25;;;17.20;32.10;;;;;;5028512;28;20047;-81
2023/09/17 07:18:44;;;;;;;32.10;21.77;;;17.30;21.30;;;;;;5048858;28;20124;-82
2023/09/17 07:21:10;;;;;;;29.38;20.80;;;17.20;9.40;;;;;;5042500;28;20072;-82
2023/09/17 07:23:35;;;;;;;29.25;22.00;;;17.20;2.50;;;;;;5026932;28;20186;-81
2023/09/17 07:26:03;;;;;;;27.70;20.63;;;17.20;1.00;;;;;;5047814;28;20513;-81
2023/09/17 07:28:28;;;;;;;31.30;22.60;;;17.20;1.00;;;;;;5041438;28;20532;-81
2023/09/17 07:30:55;;;;;;;29.00;20.95;;;17.20;1.00;;;;;;5044699;28;20048;-82
2023/09/17 07:33:21;;;;;;;29.38;21.73;;;17.30;1.00;;;;;;5045895;28;20115;-82
2023/09/17 07:35:49;;;;;;;29.95;21.25;;;17.20;1.00;;;;;;5022772;28;20606;-82
2023/09/17 07:38:15;;;;;;;29.35;21.70;;;17.30;1.00;;;;;;5050817;28;20045;-83
2023/09/17 07:40:41;;;;;;;29.63;20.42;;;17.20;1.00;;;;;;5023539;28;20051;-82
2023/09/17 07:43:07;;;;;;;30.30;22.42;;;17.20;1.00;;;;;;5004654;28;20507;-83
2023/09/17 07:45:35;;;;;;;30.58;20.35;;;17.00;1.00;;;;;;5021800;28;20033;-84
2023/09/17 07:48:04;;;;;;;28.85;21.05;;;16.90;1.00;;;;;;5021304;28;20151;-83
2023/09/17 07:50:30;;;;;;;29.90;21.48;;;16.80;1.00;;;;;;5012007;28;20062;-84
2023/09/17 07:52:56;;;;;;;31.33;22.35;;;16.80;5.80;;;;;;5024937;28;20045;-85
2023/09/17 07:55:22;;;;;;;29.42;21.83;;;16.70;17.40;;;;;;5027007;28;20045;-86
2023/09/17 07:57:47;;;;;;;30.45;22.02;;;16.80;28.80;;;;;;5024788;28;20415;-84
2023/09/17 08:00:15;;;;;;;32.22;21.98;;;16.80;40.70;;;;;;5028845;28;20045;-85
2023/09/17 08:02:44;;;;;;;30.08;21.83;;;16.80;51.10;;;;;;5028544;28;20147;-85
2023/09/17 08:05:13;;;;;;;33.67;22.25;;;16.90;57.50;;;;;;5019685;28;20493;-85
2023/09/17 08:07:42;;;;;;;30.58;21.17;;;17.00;63.90;;;;;;5016111;28;20897;-84
2023/09/17 08:10:08;;;;;;;29.42;20.55;;;17.10;64.80;;;;;;5026777;28;20128;-84
2023/09/17 08:12:34;;;;;;;28.55;20.58;;;17.10;64.20;;;;;;5002740;28;20041;-84
2023/09/17 08:15:00;;;;;;;28.05;19.45;;;17.20;57.90;;;;;;5022598;28;20041;-83
2023/09/17 08:17:26;;;;;;;30.63;21.92;;;17.10;55.40;;;;;;5028118;28;20119;-83
2023/09/17 08:19:52;;;;;;;26.13;19.55;;;17.10;57.50;;;;;;5024737;28;20479;-83
2023/09/17 08:22:18;;;;;;;28.00;20.35;;;17.10;68.00;;;;;;5038854;28;20044;-85
2023/09/17 08:24:44;;;;;;;30.63;19.38;;;17.20;75.40;;;;;;5010243;28;20510;-83
2023/09/17 08:27:09;;;;;;;29.35;18.73;;;17.20;72.90;;;;;;5032751;28;20108;-84
2023/09/17 08:29:35;;;;;;;22.30;17.70;;;17.20;68.10;;;;;;5034850;28;20057;-82
2023/09/17 08:32:03;;;;;;;22.70;17.25;;;17.30;65.50;;;;;;5012982;28;20086;-83
2023/09/17 08:34:29;;;;;;;24.35;18.58;;;17.30;64.60;;;;;;5035844;28;20053;-83
2023/09/17 08:36:55;;;;;;;25.15;17.70;;;17.40;59.40;;;;;;5020638;28;20044;-84
2023/09/17 08:39:20;;;;;;;27.35;18.67;;;17.50;53.00;;;;;;5030013;28;20135;-83
2023/09/17 08:41:47;;;;;;;23.52;17.35;;;17.60;48.90;;;;;;5025795;28;20052;-83
2023/09/17 08:44:14;;;;;;;24.85;17.73;;;17.80;42.50;;;;;;5054973;28;20048;-82
2023/09/17 08:46:40;;;;;;;24.92;18.27;;;17.80;31.20;;;;;;5053543;28;20538;-82
2023/09/17 08:49:06;;;;;;;24.75;17.05;;;17.90;15.40;;;;;;5035392;28;20613;-83
2023/09/17 08:51:36;;;;;;;21.80;16.33;;;17.80;8.40;;;;;;5049469;28;20083;-83
2023/09/17 08:54:14;;;;;;;23.02;16.58;;;17.80;4.60;;;;;;5051557;28;20042;-84
2023/09/17 08:56:47;;;;;;;25.23;16.83;;;17.70;1.00;;;;;;5043428;28;20678;-83
2023/09/17 08:59:47;;;;;;;23.52;16.58;;;17.60;5.70;;;;;;5048952;28;20115;-84
2023/09/17 09:02:24;;;;;;;21.08;15.82;;;17.60;7.50;;;;;;5042444;28;20110;-83
2023/09/17 09:04:51;;;;;;;25.55;16.77;;;17.50;6.30;;;;;;5060453;28;20051;-83
2023/09/17 09:07:23;;;;;;;21.55;16.75;;;17.50;9.20;;;;;;5052599;28;20445;-83
2023/09/17 09:09:51;;;;;;;20.23;15.23;;;17.60;8.40;;;;;;5052367;28;20040;-83
2023/09/17 09:12:17;;;;;;;23.15;16.52;;;17.60;12.00;;;;;;5046380;28;20051;-83
2023/09/17 09:14:44;;;;;;;20.63;16.25;;;17.80;8.00;;;;;;5051437;28;20490;-83
2023/09/17 09:17:13;;;;;;;22.75;16.23;;;18.00;1.00;;;;;;5032836;28;20040;-83
2023/09/17 09:19:39;;;;;;;24.48;17.20;;;18.00;1.00;;;;;;5036204;28;20483;-84
2023/09/17 09:22:05;;;;;;;23.38;16.98;;;18.20;1.00;;;;;;5035166;28;20048;-83
2023/09/17 09:24:48;;;;;;;21.85;16.33;;;18.40;1.00;;;;;;5049438;28;20056;-82
2023/09/17 09:27:14;;;;;;;21.58;16.52;;;18.50;1.00;;;;;;5034284;28;20037;-83
2023/09/17 09:29:42;;;;;;;18.98;15.40;;;18.70;1.00;;;;;;5048809;28;20055;-83
2023/09/17 09:32:11;;;;;;;18.55;14.73;;;18.80;1.00;;;;;;5050011;28;20116;-83
2023/09/17 09:34:39;;;;;;;22.15;15.00;;;19.00;1.00;;;;;;5036382;28;20110;-83
2023/09/17 09:37:06;;;;;;;18.25;14.13;;;19.10;1.00;;;;;;5049785;28;20123;-83
2023/09/17 09:39:34;;;;;;;21.08;13.77;;;19.20;1.00;;;;;;5052355;28;20052;-83
2023/09/17 09:42:01;;;;;;;16.70;13.90;;;19.20;1.00;;;;;;5048713;28;20064;-82
2023/09/17 09:44:29;;;;;;;18.75;14.85;;;19.10;99.90;;;;;;5043809;28;20516;-81
2023/09/17 09:47:04;;;;;;;19.48;14.15;;;19.00;99.90;;;;;;5032748;28;20047;-83
2023/09/17 09:49:42;;;;;;;21.70;15.80;;;19.00;99.90;;;;;;5045895;28;20041;-83
2023/09/17 09:52:10;;;;;;;18.13;14.55;;;18.90;99.90;;;;;;5046263;28;20051;-82
2023/09/17 09:54:35;;;;;;;20.02;15.25;;;19.00;99.90;;;;;;5048757;28;20119;-83
2023/09/17 09:57:05;;;;;;;20.13;15.07;;;19.10;99.90;;;;;;5049861;28;20119;-83
2023/09/17 10:00:26;;;;;;;;;;;;;;;;;;;;;
2023/09/17 10:03:07;;;;;;;21.10;14.27;;;19.40;99.90;;;;;;5024593;28;20048;-82
2023/09/17 10:05:42;;;;;;;20.95;14.82;;;19.40;99.90;;;;;;5029164;28;20044;-82
2023/09/17 10:08:09;;;;;;;21.80;15.55;;;19.60;99.90;;;;;;5028675;28;20033;-82
2023/09/17 10:10:36;;;;;;;20.42;14.90;;;19.60;99.90;;;;;;5053910;28;20534;-82
2023/09/17 10:13:05;;;;;;;23.70;15.82;;;19.70;99.90;;;;;;5057892;28;20049;-83
2023/09/17 10:15:31;;;;;;;21.55;15.82;;;19.70;99.90;;;;;;5043853;28;20048;-82
2023/09/17 10:17:59;;;;;;;20.45;16.15;;;19.70;91.30;;;;;;5058038;28;20060;-83
2023/09/17 10:20:25;;;;;;;20.60;15.55;;;19.70;94.70;;;;;;5050047;28;20048;-82
2023/09/17 10:22:53;;;;;;;21.75;15.10;;;19.70;59.50;;;;;;5033147;28;20039;-82
2023/09/17 10:25:20;;;;;;;21.33;15.70;;;19.60;73.90;;;;;;5051431;28;20048;-83
2023/09/17 10:27:49;;;;;;;23.30;16.42;;;19.50;99.90;;;;;;5043804;28;20482;-83
2023/09/17 10:30:16;;;;;;;23.13;16.00;;;19.30;99.90;;;;;;5056963;28;20102;-84
2023/09/17 10:32:42;;;;;;;21.98;16.35;;;19.10;99.90;;;;;;5063670;28;20037;-86
2023/09/17 10:35:09;;;;;;;19.40;14.40;;;18.80;99.90;;;;;;5036579;28;20098;-85
2023/09/17 10:37:37;;;;;;;21.75;16.17;;;18.60;99.90;;;;;;5032868;28;20041;-85
2023/09/17 10:40:10;;;;;;;21.33;16.77;;;18.50;99.90;;;;;;4992022;28;1113038;-85
2023/09/17 10:42:38;;;;;;;20.67;16.33;;;18.50;1.00;;;;;;5059253;28;20052;-83
2023/09/17 10:45:10;;;;;;;21.02;16.20;;;18.50;1.00;;;;;;5038540;28;20053;-84
2023/09/17 10:47:40;;;;;;;20.83;16.73;;;18.90;1.00;;;;;;5037467;28;20055;-84
2023/09/17 10:50:08;;;;;;;20.35;15.70;;;19.50;1.00;;;;;;5047614;28;20037;-85
2023/09/17 10:52:35;;;;;;;19.67;15.35;;;20.00;1.00;;;;;;5062334;28;20119;-85
2023/09/17 10:55:02;;;;;;;20.02;15.25;;;20.20;99.90;;;;;;5050289;28;20050;-83
2023/09/17 10:57:35;;;;;;;20.60;15.20;;;20.30;99.90;;;;;;5035430;28;20507;-83
2023/09/17 11:00:04;;;;;;;19.42;14.60;;;20.30;99.90;;;;;;5020000;28;20044;-83
2023/09/17 11:02:33;;;;;;;16.63;13.75;;;20.20;99.90;;;;;;5024799;28;20140;-83
2023/09/17 11:05:03;;;;;;;17.00;12.85;;;20.00;99.90;;;;;;5031246;28;20450;-83
2023/09/17 11:07:30;;;;;;;17.25;12.73;;;20.20;99.90;;;;;;5039322;28;20036;-83
2023/09/17 11:09:58;;;;;;;15.25;12.02;;;20.20;99.90;;;;;;5051535;28;20119;-83
2023/09/17 11:12:24;;;;;;;14.50;11.25;;;20.30;99.90;;;;;;5035384;28;20036;-83
2023/09/17 11:14:51;;;;;;;13.60;10.07;;;20.20;99.90;;;;;;5052493;28;20438;-83
2023/09/17 11:17:18;;;;;;;13.52;10.52;;;20.00;99.90;;;;;;5049236;28;20491;-83
2023/09/17 11:19:44;;;;;;;15.00;10.35;;;19.70;99.90;;;;;;5067354;28;20044;-83
2023/09/17 11:22:12;;;;;;;14.50;10.63;;;19.50;99.90;;;;;;5034682;28;20091;-84
2023/09/17 11:24:38;;;;;;;14.35;10.35;;;19.30;99.90;;;;;;5041346;28;20098;-83
2023/09/17 11:27:05;;;;;;;15.73;10.90;;;19.20;99.90;;;;;;5037082;28;20040;-83
2023/09/17 11:29:45;;;;;;;16.13;12.32;;;19.10;1.00;;;;;;5046628;28;20101;-83
2023/09/17 11:32:13;;;;;;;14.80;10.63;;;19.20;1.00;;;;;;5032171;28;20402;-83
2023/09/17 11:34:42;;;;;;;16.58;11.35;;;19.50;1.00;;;;;;5024619;28;20033;-83
2023/09/17 11:37:07;;;;;;;15.02;11.73;;;20.00;99.90;;;;;;5049056;28;20052;-83
2023/09/17 11:39:51;;;;;;;13.32;10.88;;;20.50;99.90;;;;;;5029248;28;20043;-83
2023/09/17 11:42:17;;;;;;;17.02;10.75;;;21.00;99.90;;;;;;5047292;28;20052;-83
2023/09/17 11:44:45;;;;;;;16.17;10.35;;;21.40;99.90;;;;;;5031132;28;20432;-83
2023/09/17 11:47:12;;;;;;;14.20;10.55;;;21.80;99.90;;;;;;5041386;28;20503;-83
2023/09/17 11:49:39;;;;;;;14.00;10.45;;;23.40;97.70;;;;;;5042802;28;20036;-83
2023/09/17 11:52:12;;;;;;;12.60;10.38;;;25.20;99.90;;;;;;5029145;28;20052;-83
2023/09/17 11:54:51;;;;;;;13.63;9.95;;;26.60;99.90;;;;;;5036070;28;20255;-83
2023/09/17 11:57:24;;;;;;;9.98;8.68;;;27.70;47.80;;;;;;5059742;28;20044;-83
2023/09/17 11:59:49;;;;;;;10.63;8.57;;;28.30;1.00;;;;;;5037082;28;20544;-83
2023/09/17 12:02:17;;;;;;;11.75;9.80;;;27.80;1.00;;;;;;5027781;28;20048;-83
2023/09/17 12:04:43;;;;;;;10.50;9.40;;;27.20;1.00;;;;;;5026500;28;20036;-82
2023/09/17 12:07:12;;;;;;;13.18;9.63;;;26.70;1.00;;;;;;5029736;28;20044;-82
2023/09/17 12:10:04;;;;;;;13.52;9.43;;;26.80;1.00;;;;;;5049271;28;20085;-81
2023/09/17 12:12:37;;;;;;;11.30;9.75;;;27.80;1.00;;;;;;5037277;28;20051;-82
2023/09/17 12:15:09;;;;;;;11.65;10.07;;;28.40;1.00;;;;;;5036881;28;20487;-82
2023/09/17 12:17:36;;;;;;;10.50;9.40;;;28.30;1.00;;;;;;5048593;28;20599;-82
2023/09/17 12:20:12;;;;;;;11.07;9.00;;;28.00;1.00;;;;;;5043263;28;20084;-82
2023/09/17 12:22:38;;;;;;;12.80;9.57;;;27.40;1.00;;;;;;5030014;28;20474;-82
2023/09/17 12:25:13;;;;;;;11.60;9.68;;;26.70;1.00;;;;;;5023521;28;20136;-82
2023/09/17 12:27:46;;;;;;;13.23;10.43;;;26.30;1.00;;;;;;5044191;28;20080;-82
2023/09/17 12:30:13;;;;;;;14.25;9.73;;;26.00;1.00;;;;;;5045124;28;20044;-82
2023/09/17 12:32:38;;;;;;;12.68;10.13;;;25.70;1.00;;;;;;5024344;28;20118;-82
2023/09/17 12:35:06;;;;;;;12.38;9.77;;;25.50;1.00;;;;;;5042951;28;20678;-82
2023/09/17 12:37:32;;;;;;;12.88;10.38;;;25.30;1.00;;;;;;5027179;28;20052;-83